TimeEST,TemperatureF,Dew PointF,Humidity,Sea Level PressureIn,VisibilityMPH,Wind Direction,Wind SpeedMPH,Gust SpeedMPH,PrecipitationIn,Events,Conditions,WindDirDegrees,DateUTC
12:55 AM,37.4,17.8,45,30.17,10.0,North,11.5,-,N/A,,Scattered Clouds,10,2013-03-09 05:55:00
1:55 AM,36.9,17.6,46,30.17,10.0,North,16.1,23.0,N/A,,Mostly Cloudy,360,2013-03-09 06:55:00
2:55 AM,35.4,17.6,48,30.17,10.0,North,8.1,-,N/A,,Partly Cloudy,10,2013-03-09 07:55:00
3:55 AM,34.3,17.8,51,30.18,10.0,NNE,9.2,-,N/A,,Partly Cloudy,20,2013-03-09 08:55:00
4:55 AM,32.9,18.0,54,30.19,10.0,North,11.5,-,N/A,,Clear,360,2013-03-09 09:55:00
5:55 AM,32.4,17.1,53,30.21,10.0,North,13.8,-,N/A,,Partly Cloudy,360,2013-03-09 10:55:00
6:55 AM,33.6,17.2,51,30.23,10.0,NNE,8.1,-,N/A,,Partly Cloudy,20,2013-03-09 11:55:00
7:55 AM,36.1,17.6,47,30.25,10.0,North,13.8,-,N/A,,Clear,10,2013-03-09 12:55:00
8:55 AM,38.3,18.3,45,30.25,10.0,North,13.8,-,N/A,,Clear,10,2013-03-09 13:55:00
9:55 AM,40.6,17.8,40,30.25,10.0,NNE,6.9,-,N/A,,Partly Cloudy,30,2013-03-09 14:55:00
10:55 AM,39.4,23.0,52,30.26,10.0,SE,8.1,-,N/A,,Partly Cloudy,130,2013-03-09 15:55:00
11:55 AM,39.6,24.8,56,30.26,10.0,East,8.1,-,N/A,,Partly Cloudy,100,2013-03-09 16:55:00
12:55 PM,40.3,24.8,54,30.26,10.0,SE,8.1,-,N/A,,Clear,130,2013-03-09 17:55:00
1:55 PM,39.7,25.9,58,30.25,10.0,SE,9.2,-,N/A,,Clear,130,2013-03-09 18:55:00
2:55 PM,38.8,26.6,61,30.25,10.0,ESE,10.4,-,N/A,,Clear,110,2013-03-09 19:55:00
3:55 PM,38.3,25.9,61,30.27,10.0,East,8.1,-,N/A,,Clear,100,2013-03-09 20:55:00
4:55 PM,37.4,27.0,66,30.28,10.0,East,6.9,-,N/A,,Clear,100,2013-03-09 21:55:00
5:55 PM,35.8,28.2,74,30.31,10.0,ESE,4.6,-,N/A,,Clear,110,2013-03-09 22:55:00
6:55 PM,33.8,28.4,81,30.33,10.0,Calm,Calm,-,N/A,,Clear,0,2013-03-09 23:55:00
7:55 PM,31.6,26.6,82,30.34,10.0,Calm,Calm,-,N/A,,Clear,0,2013-03-10 00:55:00
8:55 PM,30.6,27.3,88,30.34,10.0,Calm,Calm,-,N/A,,Clear,0,2013-03-10 01:55:00
9:55 PM,28.4,26.6,93,30.37,10.0,West,4.6,-,N/A,,Clear,270,2013-03-10 02:55:00
10:55 PM,28.2,26.2,92,30.35,10.0,NNW,3.5,-,N/A,,Clear,330,2013-03-10 03:55:00
11:55 PM,27.0,25.3,94,30.37,10.0,North,4.6,-,N/A,,Clear,350,2013-03-10 04:55:00